createdAt,value
2017-04-11T08:36:38.009Z,2840
2017-04-11T08:41:37.847Z,2785
2017-04-11T08:46:37.814Z,2835
2017-04-11T08:51:37.805Z,2540
2017-04-11T08:56:37.432Z,2605
2017-04-11T09:01:37.735Z,2640
2017-04-11T09:06:37.709Z,2780
2017-04-11T09:11:37.651Z,640
2017-04-11T09:16:37.619Z,685
2017-04-11T09:21:37.581Z,975
2017-04-11T09:26:37.532Z,870
2017-04-11T09:31:37.527Z,2345
2017-04-11T09:36:37.459Z,2320
2017-04-11T09:41:37.427Z,1070
2017-04-11T09:46:37.111Z,2440
2017-04-11T09:51:37.149Z,1070
2017-04-11T09:56:37.375Z,960
2017-04-11T10:01:37.271Z,905
2017-04-11T10:06:36.965Z,815
2017-04-11T10:11:36.913Z,855
2017-04-11T10:16:37.137Z,730
2017-04-11T10:21:37.107Z,470
2017-04-11T10:26:37.049Z,515
2017-04-11T10:31:37.039Z,645
2017-04-11T10:36:36.709Z,710
2017-04-11T10:41:36.934Z,875
2017-04-11T10:46:36.883Z,690
2017-04-11T10:51:36.854Z,1515
2017-04-11T10:56:36.811Z,1295
2017-04-11T11:01:36.733Z,490
2017-04-11T11:06:36.695Z,195
2017-04-11T11:11:36.695Z,250
2017-04-11T11:16:36.722Z,500
2017-04-11T11:21:36.591Z,295
2017-04-11T11:26:36.280Z,120
2017-04-11T11:31:36.489Z,130
2017-04-11T11:36:36.111Z,125
2017-04-11T11:41:36.081Z,155
2017-04-11T11:46:36.080Z,295
2017-04-11T11:51:36.277Z,285
2017-04-11T11:56:36.231Z,545
2017-04-11T12:01:36.172Z,220
2017-04-11T12:06:36.152Z,265
2017-04-11T12:11:36.101Z,335
2017-04-11T12:16:36.081Z,455
2017-04-11T12:21:35.993Z,430
2017-04-11T12:26:35.948Z,440
2017-04-11T12:31:35.590Z,335
2017-04-11T12:36:35.847Z,275
2017-04-11T12:41:35.492Z,370
2017-04-11T12:46:35.474Z,380
2017-04-11T12:51:35.693Z,315
2017-04-11T12:56:35.734Z,280
2017-04-11T13:01:35.606Z,410
2017-04-11T13:06:35.570Z,340
2017-04-11T13:11:35.518Z,365
2017-04-11T13:16:35.400Z,290
2017-04-11T13:21:35.126Z,330
2017-04-11T13:26:35.382Z,340
2017-04-11T13:31:35.012Z,330
2017-04-11T13:36:35.292Z,395
2017-04-11T13:41:35.262Z,390
2017-04-11T13:46:35.279Z,365
2017-04-11T13:51:35.183Z,385
2017-04-11T13:56:35.115Z,440
2017-04-11T14:01:35.037Z,420
2017-04-11T14:06:34.987Z,395
2017-04-11T14:11:34.623Z,390
2017-04-11T14:16:34.900Z,350
2017-04-11T14:21:34.849Z,310
2017-04-11T14:26:34.862Z,255
2017-04-11T14:31:34.771Z,225
2017-04-11T14:36:34.698Z,265
2017-04-11T14:41:34.633Z,325
2017-04-11T14:46:34.595Z,305
2017-04-11T14:51:34.569Z,300
2017-04-11T14:56:34.204Z,290
2017-04-11T15:01:34.143Z,285
2017-04-11T15:06:34.103Z,300
2017-04-11T15:11:34.063Z,280
2017-04-11T15:16:34.332Z,230
2017-04-11T15:21:33.949Z,215
2017-04-11T15:26:33.939Z,220
2017-04-11T15:31:34.158Z,200
2017-04-11T15:36:34.146Z,190
2017-04-11T15:41:34.071Z,170
2017-04-11T15:46:34.077Z,140
2017-04-11T15:51:34.011Z,130
2017-04-11T15:56:33.470Z,120
2017-04-11T16:01:33.872Z,120
2017-04-11T16:06:34.024Z,140
2017-04-11T16:11:33.141Z,145
2017-04-11T16:16:33.678Z,130
2017-04-11T16:21:33.644Z,125
2017-04-11T16:26:33.590Z,125
2017-04-11T16:31:33.527Z,130
2017-04-11T16:36:33.560Z,125
2017-04-11T16:41:33.115Z,125
2017-04-11T16:46:33.342Z,115
2017-04-11T16:51:33.276Z,105
2017-04-11T16:56:33.194Z,100
2017-04-11T17:01:33.143Z,100
2017-04-11T17:06:33.109Z,95
2017-04-11T17:11:33.153Z,90
2017-04-11T17:16:32.962Z,85
2017-04-11T17:21:32.305Z,70
2017-04-11T17:26:32.802Z,70
2017-04-11T17:31:32.772Z,55
2017-04-11T17:36:32.370Z,55
2017-04-11T17:41:32.699Z,55
2017-04-11T17:46:32.674Z,50
2017-04-11T17:51:32.641Z,40
2017-04-11T17:56:31.822Z,25
2017-04-11T18:01:32.062Z,15
2017-04-11T18:06:32.287Z,15
2017-04-11T18:11:32.212Z,10
2017-04-11T18:16:32.168Z,10
2017-04-11T18:21:32.095Z,5
2017-04-11T18:26:31.743Z,0
2017-04-11T18:31:31.987Z,0
2017-04-11T18:36:31.888Z,0
2017-04-11T18:41:31.825Z,0
2017-04-11T18:46:31.800Z,0
2017-04-11T18:51:31.444Z,0
2017-04-11T18:56:31.645Z,0
2017-04-11T19:01:31.822Z,0
2017-04-11T19:06:31.208Z,0
2017-04-11T19:11:31.558Z,0
2017-04-11T19:16:31.096Z,0
2017-04-11T19:21:31.360Z,0
2017-04-11T19:26:31.293Z,0
2017-04-11T19:31:31.201Z,0
2017-04-11T19:36:31.095Z,0
2017-04-11T19:41:31.048Z,0
2017-04-11T19:46:30.981Z,0
2017-04-11T19:51:30.595Z,0
2017-04-11T19:56:30.238Z,0
2017-04-11T20:01:30.882Z,0
2017-04-11T20:06:30.697Z,0
2017-04-11T20:11:30.632Z,0
2017-04-11T20:16:30.300Z,0
2017-04-11T20:21:30.485Z,0
2017-04-11T20:26:30.426Z,0
2017-04-11T20:31:30.375Z,0
2017-04-11T20:36:30.377Z,0
2017-04-11T20:41:30.236Z,0
2017-04-11T20:46:30.183Z,0
2017-04-11T20:51:30.093Z,0
2017-04-11T20:56:29.727Z,0
2017-04-11T21:01:29.955Z,0
2017-04-11T21:06:29.591Z,0
2017-04-11T21:11:29.936Z,0
2017-04-11T21:16:29.748Z,0
